Time;durP1;ratioP1;P1;durP2;ratioP2;P2;SDS_P1;SDS_P2;PMS_P1;PMS_P2;Temp;Humidity;BMP_temperature;BMP_pressure;BME280_temperature;BME280_humidity;BME280_pressure;Samples;Min_cycle;Max_cycle;Signal;HPM_P1;HPM_P2
2021/11/23 00:00:15;;;;;;;11.13;5.70;;;;;;;5.48;99.90;103072.31;701850;28;871;-59
2021/11/23 00:00:44;;;;;;;9.32;5.30;;;;;;;5.47;99.92;103073.16;701737;28;797;-59
2021/11/23 00:01:05;;;;;;;12.40;5.20;;;;;;;5.53;100.00;103080.22;701812;28;894;-59
2021/11/23 00:01:25;;;;;;;9.57;5.07;;;;;;;5.54;99.69;103079.34;701971;28;804;-59
2021/11/23 00:01:46;;;;;;;9.03;5.10;;;;;;;5.56;99.63;103077.66;701824;28;905;-58
2021/11/23 00:02:06;;;;;;;9.38;5.28;;;;;;;5.55;100.00;103082.00;701796;28;860;-59
2021/11/23 00:02:27;;;;;;;8.83;5.40;;;;;;;5.56;99.93;103078.53;701824;28;796;-58
2021/11/23 00:02:47;;;;;;;8.68;5.20;;;;;;;5.59;99.69;103082.94;701877;28;883;-58
2021/11/23 00:03:07;;;;;;;10.73;5.22;;;;;;;5.59;99.89;103078.59;700776;28;1584;-57
2021/11/23 00:03:28;;;;;;;10.33;5.00;;;;;;;5.60;99.68;103080.34;701579;28;879;-59
2021/11/23 00:03:49;;;;;;;10.97;4.93;;;;;;;5.60;100.00;103079.47;701752;28;864;-59
2021/11/23 00:04:09;;;;;;;11.55;4.70;;;;;;;5.61;99.84;103082.13;701513;28;1496;-58
2021/11/23 00:04:32;;;;;;;9.73;4.67;;;;;;;5.62;99.90;103076.00;701870;28;884;-58
2021/11/23 00:04:52;;;;;;;9.05;4.50;;;;;;;5.64;99.69;103082.16;701304;28;1085;-58
2021/11/23 00:05:13;;;;;;;10.52;4.53;;;;;;;5.64;99.81;103081.25;699263;28;1026;-58
2021/11/23 00:05:35;;;;;;;8.30;4.82;;;;;;;5.66;99.88;103080.44;699373;28;840;-59
2021/11/23 00:05:55;;;;;;;8.98;4.80;;;;;;;5.65;99.60;103086.53;699233;28;1018;-58
2021/11/23 00:06:17;;;;;;;11.43;4.73;;;;;;;5.64;99.85;103082.16;698946;28;891;-58
2021/11/23 00:06:38;;;;;;;10.85;4.80;;;;;;;5.67;99.93;103087.41;698997;28;1295;-58
2021/11/23 00:07:01;;;;;;;9.75;4.45;;;;;;;5.67;99.92;103082.16;699226;28;1458;-58
2021/11/23 00:07:21;;;;;;;8.77;4.60;;;;;;;5.68;99.61;103081.34;698988;28;764;-58
2021/11/23 00:07:41;;;;;;;8.33;4.50;;;;;;;5.69;99.79;103090.94;698970;28;840;-59
2021/11/23 00:08:03;;;;;;;8.45;4.57;;;;;;;5.70;99.99;103082.22;698506;28;1423;-58
2021/11/23 00:08:26;;;;;;;8.70;4.60;;;;;;;5.69;99.89;103080.47;698946;28;1022;-59
2021/11/23 00:08:46;;;;;;;9.77;4.88;;;;;;;5.71;99.85;103083.09;699029;28;1482;-58
2021/11/23 00:09:09;;;;;;;9.85;5.15;;;;;;;5.71;99.80;103088.31;698870;28;1331;-58
2021/11/23 00:09:32;;;;;;;10.30;4.80;;;;;;;5.69;99.80;103080.47;699020;28;908;-58
2021/11/23 00:09:53;;;;;;;11.23;5.00;;;;;;;5.70;100.00;103082.22;698909;28;990;-59
2021/11/23 00:10:19;;;;;;;10.50;4.80;;;;;;;5.71;99.74;103081.38;699020;28;856;-57
2021/11/23 00:10:40;;;;;;;10.77;4.70;;;;;;;5.72;99.94;103075.28;698880;28;1315;-58
2021/11/23 00:11:00;;;;;;;9.82;4.70;;;;;;;5.72;99.65;103077.91;698962;28;918;-58
2021/11/23 00:11:21;;;;;;;9.33;4.70;;;;;;;5.71;99.96;103078.78;698966;28;1062;-58
2021/11/23 00:11:41;;;;;;;9.57;4.70;;;;;;;5.72;99.75;103077.03;699025;28;856;-58
2021/11/23 00:12:01;;;;;;;10.55;4.82;;;;;;;5.72;99.83;103077.03;699413;28;1474;-58
2021/11/23 00:12:23;;;;;;;9.23;5.00;;;;;;;5.72;99.81;103074.41;701698;28;1049;-58
2021/11/23 00:12:49;;;;;;;10.40;5.30;;;;;;;5.70;99.84;103077.00;701754;28;1179;-58
2021/11/23 00:13:11;;;;;;;9.60;4.65;;;;;;;5.72;99.82;103079.66;701733;28;998;-57
2021/11/23 00:13:31;;;;;;;9.63;4.85;;;;;;;5.72;100.00;103075.28;701750;28;843;-59
2021/11/23 00:13:52;;;;;;;9.95;5.10;;;;;;;5.72;99.74;103080.53;701809;28;998;-58
2021/11/23 00:14:12;;;;;;;9.90;4.57;;;;;;;5.72;99.87;103077.91;701674;28;815;-59
2021/11/23 00:14:35;;;;;;;10.00;4.77;;;;;;;5.72;99.83;103074.41;701755;28;823;-58
2021/11/23 00:14:56;;;;;;;9.13;4.90;;;;;;;5.70;99.74;103077.00;701522;28;1568;-58
2021/11/23 00:15:17;;;;;;;9.73;5.00;;;;;;;5.73;99.75;103076.16;701777;28;899;-57
2021/11/23 00:15:37;;;;;;;8.87;4.87;;;;;;;5.72;100.00;103077.91;701634;28;1905;-58
2021/11/23 00:15:58;;;;;;;9.70;4.57;;;;;;;5.72;99.89;103080.53;701798;28;1045;-57
2021/11/23 00:16:19;;;;;;;8.47;5.07;;;;;;;5.74;99.96;103079.66;701697;28;856;-58
2021/11/23 00:16:39;;;;;;;8.50;5.20;;;;;;;5.74;100.00;103083.13;701743;28;1322;-58
2021/11/23 00:16:59;;;;;;;9.85;5.05;;;;;;;5.74;100.00;103077.91;701896;28;828;-58
2021/11/23 00:17:23;;;;;;;10.23;5.00;;;;;;;5.74;99.77;103074.41;701679;28;855;-58
2021/11/23 00:17:43;;;;;;;10.65;4.85;;;;;;;5.76;100.00;103080.56;701435;28;796;-57
2021/11/23 00:18:05;;;;;;;9.30;4.50;;;;;;;5.78;100.00;103089.28;700875;28;1291;-57
2021/11/23 00:18:25;;;;;;;9.75;4.22;;;;;;;5.82;100.00;103083.28;701717;28;982;-59
2021/11/23 00:18:46;;;;;;;7.87;3.60;;;;;;;5.84;100.00;103084.16;701795;28;982;-59
2021/11/23 00:19:07;;;;;;;8.57;3.17;;;;;;;5.85;100.00;103075.44;701758;28;844;-58
2021/11/23 00:19:30;;;;;;;9.15;2.88;;;;;;;5.89;99.96;103082.50;701750;28;1187;-59
2021/11/23 00:19:50;;;;;;;10.02;3.30;;;;;;;5.91;100.00;103080.75;701708;28;940;-57
2021/11/23 00:20:11;;;;;;;9.13;3.13;;;;;;;5.91;100.00;103080.75;701636;28;578;-57
2021/11/23 00:20:32;;;;;;;8.85;2.90;;;;;;;5.94;100.00;103075.59;701698;28;828;-57
2021/11/23 00:20:53;;;;;;;10.35;3.10;;;;;;;5.95;100.00;103077.34;701729;28;871;-58
2021/11/23 00:21:14;;;;;;;8.93;2.90;;;;;;;5.96;100.00;103079.13;701713;28;872;-57
2021/11/23 00:21:34;;;;;;;7.43;2.80;;;;;;;5.97;100.00;103080.88;701631;28;1676;-58
2021/11/23 00:21:55;;;;;;;8.63;2.75;;;;;;;5.98;100.00;103080.00;701607;28;826;-58
2021/11/23 00:22:15;;;;;;;9.53;2.70;;;;;;;6.00;100.00;103086.16;701710;28;804;-58
2021/11/23 00:22:36;;;;;;;8.52;2.58;;;;;;;6.04;100.00;103081.84;701689;28;994;-59
2021/11/23 00:22:56;;;;;;;7.82;2.42;;;;;;;6.06;100.00;103083.63;701519;28;1481;-58
2021/11/23 00:23:17;;;;;;;6.90;2.23;;;;;;;6.07;100.00;103082.75;701790;28;860;-58
2021/11/23 00:23:37;;;;;;;9.10;2.28;;;;;;;6.09;100.00;103083.66;701733;28;859;-58
2021/11/23 00:23:58;;;;;;;8.90;2.40;;;;;;;6.11;100.00;103083.66;701704;28;1035;-59
2021/11/23 00:24:18;;;;;;;8.85;2.33;;;;;;;6.11;100.00;103081.91;701760;28;958;-58
2021/11/23 00:24:39;;;;;;;8.27;2.50;;;;;;;6.13;100.00;103082.84;701664;28;943;-58
2021/11/23 00:25:00;;;;;;;9.18;2.42;;;;;;;6.15;100.00;103086.34;701763;28;911;-58
2021/11/23 00:25:20;;;;;;;7.10;2.00;;;;;;;6.15;100.00;103086.34;701776;28;868;-58
2021/11/23 00:25:45;;;;;;;8.38;2.28;;;;;;;6.17;100.00;103089.88;701490;28;1406;-58
2021/11/23 00:26:05;;;;;;;8.68;2.30;;;;;;;6.17;100.00;103084.63;701681;28;817;-58
2021/11/23 00:26:26;;;;;;;10.13;2.43;;;;;;;6.20;99.97;103094.25;701586;28;1415;-58
2021/11/23 00:26:46;;;;;;;10.45;2.22;;;;;;;6.23;100.00;103085.53;701799;28;902;-57
2021/11/23 00:27:07;;;;;;;8.73;2.67;;;;;;;6.24;100.00;103084.69;701681;28;1655;-57
2021/11/23 00:27:27;;;;;;;8.53;2.40;;;;;;;6.25;100.00;103087.31;701577;28;1319;-59
2021/11/23 00:27:47;;;;;;;7.72;2.10;;;;;;;6.26;100.00;103090.81;701436;28;1059;-58
2021/11/23 00:28:10;;;;;;;7.70;1.93;;;;;;;6.27;100.00;103085.63;701673;28;879;-58
2021/11/23 00:28:30;;;;;;;7.43;2.00;;;;;;;6.28;100.00;103089.97;701562;28;898;-57
2021/11/23 00:28:50;;;;;;;8.30;2.00;;;;;;;6.29;100.00;103088.25;701787;28;1061;-57
2021/11/23 00:29:10;;;;;;;7.90;1.77;;;;;;;6.30;99.88;103090.03;701757;28;972;-58
2021/11/23 00:29:31;;;;;;;7.33;1.90;;;;;;;6.31;99.83;103087.41;701714;28;1033;-58
2021/11/23 00:29:52;;;;;;;6.93;2.05;;;;;;;6.32;100.00;103088.28;701771;28;942;-58
2021/11/23 00:30:18;;;;;;;7.82;2.00;;;;;;;6.32;99.95;103094.41;701911;28;938;-58
2021/11/23 00:30:40;;;;;;;8.70;2.22;;;;;;;6.33;99.87;103087.41;702428;28;1397;-59
2021/11/23 00:31:00;;;;;;;8.40;2.35;;;;;;;6.35;99.97;103083.09;702211;28;910;-59
2021/11/23 00:31:20;;;;;;;7.17;2.30;;;;;;;6.35;100.00;103083.09;702281;28;994;-59
2021/11/23 00:31:41;;;;;;;7.15;2.15;;;;;;;6.36;99.80;103084.81;702236;28;966;-59
2021/11/23 00:32:02;;;;;;;7.37;2.33;;;;;;;6.37;100.00;103084.00;702188;28;828;-58
2021/11/23 00:32:23;;;;;;;7.47;1.95;;;;;;;6.36;99.97;103083.09;702050;28;938;-57
2021/11/23 00:32:43;;;;;;;7.07;2.00;;;;;;;6.37;100.00;103082.25;702308;28;913;-58
2021/11/23 00:33:04;;;;;;;7.40;2.30;;;;;;;6.39;99.85;103079.63;702202;28;1136;-58
2021/11/23 00:33:28;;;;;;;7.38;2.00;;;;;;;6.40;99.77;103081.38;701836;28;1399;-58
2021/11/23 00:33:48;;;;;;;7.35;2.17;;;;;;;6.41;99.79;103080.53;699321;28;934;-58
2021/11/23 00:34:08;;;;;;;8.13;2.20;;;;;;;6.40;99.85;103074.44;699498;28;887;-58
2021/11/23 00:34:31;;;;;;;7.70;2.00;;;;;;;6.41;100.00;103072.69;699216;28;1350;-58
2021/11/23 00:34:51;;;;;;;8.95;2.13;;;;;;;6.43;100.00;103076.19;699384;28;903;-58
2021/11/23 00:35:12;;;;;;;10.27;2.20;;;;;;;6.44;99.76;103083.19;699373;28;1003;-58
2021/11/23 00:35:37;;;;;;;7.93;2.40;;;;;;;6.44;99.95;103083.19;699407;28;1902;-58
2021/11/23 00:35:58;;;;;;;6.82;1.95;;;;;;;6.43;100.00;103084.03;699443;28;835;-58
2021/11/23 00:36:19;;;;;;;6.30;1.80;;;;;;;6.44;99.59;103083.19;699381;28;856;-58
2021/11/23 00:36:39;;;;;;;8.55;1.90;;;;;;;6.45;99.77;103084.06;699238;28;1326;-58
2021/11/23 00:36:59;;;;;;;9.10;2.13;;;;;;;6.44;99.78;103077.09;698181;28;1299;-58
2021/11/23 00:37:20;;;;;;;7.68;2.10;;;;;;;6.44;99.75;103085.81;699487;28;824;-58
2021/11/23 00:37:40;;;;;;;6.37;1.83;;;;;;;6.45;99.52;103084.94;699308;28;710;-58
2021/11/23 00:38:01;;;;;;;8.00;2.10;;;;;;;6.45;99.77;103079.72;699029;28;1048;-58
2021/11/23 00:38:21;;;;;;;8.25;2.03;;;;;;;6.46;99.74;103077.97;699342;28;831;-58
2021/11/23 00:38:42;;;;;;;7.53;1.90;;;;;;;6.46;99.64;103081.44;699439;28;1022;-58
2021/11/23 00:39:03;;;;;;;6.70;1.70;;;;;;;6.47;99.65;103080.63;699456;28;938;-58
2021/11/23 00:39:23;;;;;;;6.13;1.83;;;;;;;6.47;99.81;103078.00;701389;28;1414;-58
2021/11/23 00:39:46;;;;;;;6.43;1.93;;;;;;;6.47;99.63;103084.94;702301;28;1013;-58
2021/11/23 00:40:07;;;;;;;6.65;2.03;;;;;;;6.48;99.68;103082.38;702240;28;796;-58
2021/11/23 00:40:28;;;;;;;7.82;2.03;;;;;;;6.48;99.61;103090.22;702025;28;881;-58
2021/11/23 00:40:53;;;;;;;8.18;2.00;;;;;;;6.50;99.75;103084.97;702278;28;942;-58
2021/11/23 00:41:21;;;;;;;7.15;1.92;;;;;;;6.49;99.51;103081.50;702061;28;969;-58
2021/11/23 00:41:47;;;;;;;8.57;2.00;;;;;;;6.51;99.72;103082.41;702278;28;878;-58
2021/11/23 00:42:11;;;;;;;7.07;1.80;;;;;;;6.52;99.67;103083.28;702084;28;977;-58
2021/11/23 00:42:31;;;;;;;6.93;2.00;;;;;;;6.52;99.55;103076.28;702225;28;886;-58
2021/11/23 00:42:52;;;;;;;6.10;1.80;;;;;;;6.53;99.71;103082.41;702299;28;874;-58
2021/11/23 00:43:12;;;;;;;7.47;1.70;;;;;;;6.53;99.49;103078.03;702050;28;1009;-58
2021/11/23 00:43:32;;;;;;;7.70;1.70;;;;;;;6.55;99.75;103081.56;702330;28;866;-58
2021/11/23 00:43:52;;;;;;;7.40;1.85;;;;;;;6.54;99.47;103084.19;702139;28;977;-58
2021/11/23 00:44:18;;;;;;;7.40;1.90;;;;;;;6.53;99.61;103080.66;702239;28;842;-58
2021/11/23 00:44:38;;;;;;;8.52;1.90;;;;;;;6.53;99.72;103077.16;702025;28;1435;-58
2021/11/23 00:44:58;;;;;;;8.13;1.80;;;;;;;6.54;99.47;103085.06;702183;28;978;-58
2021/11/23 00:45:19;;;;;;;7.33;1.80;;;;;;;6.54;99.74;103084.19;701444;28;1300;-57
2021/11/23 00:45:40;;;;;;;7.27;1.73;;;;;;;6.53;99.67;103078.03;702316;28;819;-57
2021/11/23 00:46:01;;;;;;;6.32;1.55;;;;;;;6.52;99.80;103080.66;701337;28;1716;-58
2021/11/23 00:46:21;;;;;;;7.57;1.70;;;;;;;6.53;99.49;103085.91;702093;28;1284;-57
2021/11/23 00:46:42;;;;;;;7.73;1.87;;;;;;;6.53;99.47;103083.28;702145;28;1009;-58
2021/11/23 00:47:05;;;;;;;7.30;1.77;;;;;;;6.54;99.84;103085.06;702352;28;867;-57
2021/11/23 00:47:26;;;;;;;6.22;1.92;;;;;;;6.53;99.75;103088.50;702111;28;1098;-57
2021/11/23 00:47:46;;;;;;;6.97;1.98;;;;;;;6.53;99.66;103083.28;701848;28;992;-57
2021/11/23 00:48:07;;;;;;;7.85;1.70;;;;;;;6.52;99.50;103081.53;701794;28;1423;-57
2021/11/23 00:48:27;;;;;;;6.93;1.70;;;;;;;6.54;99.44;103084.19;702200;28;1037;-58
2021/11/23 00:48:48;;;;;;;7.40;1.85;;;;;;;6.53;99.42;103083.28;702084;28;890;-58
2021/11/23 00:49:13;;;;;;;7.20;1.80;;;;;;;6.53;99.80;103080.66;702319;28;784;-57
2021/11/23 00:49:33;;;;;;;8.73;1.85;;;;;;;6.52;99.61;103086.75;699355;28;1028;-58
2021/11/23 00:49:56;;;;;;;9.90;1.77;;;;;;;6.53;99.77;103085.91;699463;28;856;-59
2021/11/23 00:50:19;;;;;;;7.40;1.77;;;;;;;6.54;99.73;103085.06;699435;28;1041;-58
2021/11/23 00:50:49;;;;;;;7.18;1.80;;;;;;;6.54;99.68;103079.81;699475;28;934;-57
2021/11/23 00:51:13;;;;;;;7.97;1.50;;;;;;;6.55;99.71;103084.19;699393;28;888;-57
2021/11/23 00:51:33;;;;;;;6.88;1.70;;;;;;;6.53;99.65;103078.03;699423;28;950;-58
2021/11/23 00:51:53;;;;;;;6.97;1.77;;;;;;;6.53;99.72;103083.28;700778;28;1584;-58
2021/11/23 00:52:20;;;;;;;8.53;1.73;;;;;;;6.56;99.58;103083.31;702184;28;839;-58
2021/11/23 00:52:40;;;;;;;7.13;1.33;;;;;;;6.58;99.71;103083.34;702208;28;1097;-58
2021/11/23 00:53:02;;;;;;;7.93;1.27;;;;;;;6.58;99.60;103080.72;702165;28;849;-58
2021/11/23 00:53:25;;;;;;;9.60;1.48;;;;;;;6.58;99.73;103081.59;702145;28;1585;-60
2021/11/23 00:53:45;;;;;;;6.95;1.35;;;;;;;6.59;99.82;103078.09;702339;28;942;-59
2021/11/23 00:54:06;;;;;;;6.63;1.40;;;;;;;6.59;99.92;103069.38;702132;28;1053;-58
2021/11/23 00:54:26;;;;;;;6.97;1.40;;;;;;;6.57;99.82;103068.47;702213;28;989;-57
2021/11/23 00:54:46;;;;;;;7.80;1.50;;;;;;;6.59;99.91;103085.09;702262;28;989;-57
2021/11/23 00:55:13;;;;;;;7.88;1.55;;;;;;;6.61;99.66;103073.78;702087;28;886;-57
2021/11/23 00:55:34;;;;;;;5.70;1.10;;;;;;;6.62;99.59;103072.91;701841;28;1918;-57
2021/11/23 00:55:55;;;;;;;4.55;1.10;;;;;;;6.61;99.62;103073.78;700276;28;1430;-57
2021/11/23 00:56:15;;;;;;;7.00;1.20;;;;;;;6.62;99.75;103072.03;699461;28;841;-57
2021/11/23 00:56:35;;;;;;;7.03;1.23;;;;;;;6.62;99.68;103072.03;699289;28;1356;-58
2021/11/23 00:56:55;;;;;;;6.45;1.20;;;;;;;6.63;99.72;103069.41;699380;28;889;-57
2021/11/23 00:57:16;;;;;;;8.13;1.10;;;;;;;6.64;99.83;103065.94;699348;28;847;-59
2021/11/23 00:57:37;;;;;;;6.10;1.00;;;;;;;6.65;99.73;103072.94;699373;28;1061;-58
2021/11/23 00:57:57;;;;;;;6.00;1.10;;;;;;;6.67;99.72;103065.06;698870;28;879;-58
2021/11/23 00:58:17;;;;;;;6.28;0.90;;;;;;;6.69;99.98;103072.97;699434;28;1037;-58
2021/11/23 00:58:38;;;;;;;7.83;1.03;;;;;;;6.70;99.64;103072.97;699333;28;907;-58
2021/11/23 00:58:58;;;;;;;5.72;1.00;;;;;;;6.71;99.66;103071.22;699332;28;989;-58
2021/11/23 00:59:19;;;;;;;7.07;1.00;;;;;;;6.71;99.76;103065.97;701339;28;1466;-58
2021/11/23 00:59:39;;;;;;;5.03;0.90;;;;;;;6.72;99.86;103067.75;702086;28;1014;-58
2021/11/23 01:00:07;;;;;;;5.47;0.80;;;;;;;6.74;99.82;103071.25;702167;28;868;-59
2021/11/23 01:00:27;;;;;;;6.78;0.90;;;;;;;6.75;100.00;103068.66;702065;28;1163;-57
2021/11/23 01:00:48;;;;;;;5.50;0.90;;;;;;;6.77;99.82;103071.28;702125;28;930;-57
2021/11/23 01:01:09;;;;;;;3.83;0.73;;;;;;;6.77;99.56;103071.28;702143;28;864;-58
2021/11/23 01:01:30;;;;;;;4.50;0.90;;;;;;;6.79;99.73;103069.56;701212;28;1383;-60
2021/11/23 01:01:50;;;;;;;4.45;0.70;;;;;;;6.81;99.50;103075.69;699288;28;860;-59
2021/11/23 01:02:13;;;;;;;4.83;0.70;;;;;;;6.80;99.53;103071.31;699297;28;1057;-58
2021/11/23 01:02:33;;;;;;;4.80;0.80;;;;;;;6.82;99.58;103069.59;699222;28;880;-58
2021/11/23 01:02:54;;;;;;;5.23;0.80;;;;;;;6.84;99.27;103073.97;699356;28;1218;-58
2021/11/23 01:03:15;;;;;;;4.27;0.80;;;;;;;6.85;99.25;103069.63;699348;28;987;-59
2021/11/23 01:03:35;;;;;;;4.85;0.80;;;;;;;6.85;99.51;103074.88;699334;28;922;-59
2021/11/23 01:03:56;;;;;;;5.83;0.90;;;;;;;6.85;99.69;103069.63;699316;28;927;-59
2021/11/23 01:04:16;;;;;;;6.28;0.90;;;;;;;6.86;99.40;103067.00;699406;28;911;-59
2021/11/23 01:04:37;;;;;;;7.13;0.90;;;;;;;6.88;99.44;103067.00;699309;28;970;-59
2021/11/23 01:04:57;;;;;;;7.18;0.70;;;;;;;6.88;99.19;103074.88;699451;28;832;-59
2021/11/23 01:05:18;;;;;;;7.07;0.90;;;;;;;6.87;99.35;103067.88;699568;28;1727;-58
2021/11/23 01:05:39;;;;;;;5.00;0.73;;;;;;;6.89;99.40;103066.16;701790;28;1568;-58
2021/11/23 01:06:00;;;;;;;5.03;0.80;;;;;;;6.90;99.29;103067.91;702220;28;907;-58
2021/11/23 01:06:24;;;;;;;7.57;0.98;;;;;;;6.90;98.97;103073.16;702186;28;847;-58
2021/11/23 01:06:46;;;;;;;6.63;0.93;;;;;;;6.91;99.03;103069.66;702047;28;1922;-58
2021/11/23 01:07:06;;;;;;;4.68;0.70;;;;;;;6.92;99.04;103068.81;702088;28;927;-58
2021/11/23 01:07:26;;;;;;;6.50;0.77;;;;;;;6.93;98.95;103067.94;702154;28;1045;-58
2021/11/23 01:07:49;;;;;;;5.30;0.80;;;;;;;6.92;98.89;103068.81;701763;28;820;-58
2021/11/23 01:08:10;;;;;;;4.70;0.70;;;;;;;6.94;98.77;103068.81;702024;28;943;-58
2021/11/23 01:08:31;;;;;;;5.23;0.77;;;;;;;6.93;98.86;103060.09;702095;28;867;-58
2021/11/23 01:08:51;;;;;;;5.43;0.65;;;;;;;6.96;99.16;103069.72;702080;28;929;-58
2021/11/23 01:09:12;;;;;;;8.02;0.60;;;;;;;6.96;99.10;103069.72;702121;28;785;-58
2021/11/23 01:09:32;;;;;;;6.28;0.90;;;;;;;6.96;98.76;103065.34;702110;28;1080;-58
2021/11/23 01:09:52;;;;;;;5.83;0.90;;;;;;;6.97;98.75;103074.97;702068;28;807;-58
2021/11/23 01:10:13;;;;;;;3.47;0.60;;;;;;;6.96;99.03;103065.34;702151;28;1016;-58
2021/11/23 01:10:33;;;;;;;4.63;0.70;;;;;;;6.97;98.69;103064.47;702127;28;844;-59
2021/11/23 01:10:56;;;;;;;4.67;0.70;;;;;;;6.98;98.63;103070.59;702006;28;922;-58
2021/11/23 01:11:19;;;;;;;5.57;0.70;;;;;;;6.99;98.84;103067.13;702147;28;922;-58
2021/11/23 01:11:39;;;;;;;4.63;0.65;;;;;;;6.99;98.58;103067.13;702140;28;960;-58
2021/11/23 01:12:00;;;;;;;4.65;0.63;;;;;;;6.99;98.75;103065.38;702082;28;976;-58
2021/11/23 01:12:21;;;;;;;4.95;0.60;;;;;;;6.98;98.71;103066.22;702040;28;1219;-58
2021/11/23 01:12:42;;;;;;;5.22;0.60;;;;;;;7.00;98.92;103068.88;702017;28;843;-57
2021/11/23 01:13:02;;;;;;;6.07;0.80;;;;;;;7.01;98.79;103068.00;702135;28;942;-57
2021/11/23 01:13:23;;;;;;;4.40;0.80;;;;;;;7.01;98.76;103065.38;702264;28;867;-59
2021/11/23 01:13:47;;;;;;;3.13;0.60;;;;;;;7.03;98.46;103066.28;701806;28;1708;-58
2021/11/23 01:14:08;;;;;;;4.85;0.60;;;;;;;7.03;98.71;103066.28;702009;28;1485;-59
2021/11/23 01:14:31;;;;;;;5.90;0.60;;;;;;;7.03;98.45;103059.28;702034;28;920;-57
2021/11/23 01:14:51;;;;;;;4.35;0.90;;;;;;;7.04;98.81;103070.66;702139;28;916;-58
2021/11/23 01:15:12;;;;;;;4.67;0.60;;;;;;;7.04;98.75;103070.66;701462;28;1419;-57
2021/11/23 01:15:33;;;;;;;4.82;0.85;;;;;;;7.04;98.70;103061.03;702138;28;1906;-58
2021/11/23 01:15:53;;;;;;;4.95;0.88;;;;;;;7.03;98.52;103061.91;702077;28;879;-59
2021/11/23 01:16:15;;;;;;;6.73;0.80;;;;;;;7.03;98.41;103067.16;701987;28;1028;-58
2021/11/23 01:16:36;;;;;;;4.65;0.80;;;;;;;7.05;98.35;103057.53;702006;28;1278;-58
2021/11/23 01:16:56;;;;;;;4.13;0.60;;;;;;;7.05;98.55;103062.78;702156;28;851;-58
2021/11/23 01:17:17;;;;;;;5.67;0.90;;;;;;;7.06;98.41;103059.31;701961;28;1002;-58
2021/11/23 01:17:37;;;;;;;5.57;0.73;;;;;;;7.06;98.68;103059.31;701912;28;1434;-58
2021/11/23 01:17:58;;;;;;;4.83;0.67;;;;;;;7.07;98.21;103062.81;701655;28;982;-58
2021/11/23 01:18:18;;;;;;;7.63;0.77;;;;;;;7.07;98.37;103054.94;702123;28;867;-57
2021/11/23 01:18:38;;;;;;;4.70;0.60;;;;;;;7.07;98.59;103061.06;702191;28;816;-57
2021/11/23 01:18:59;;;;;;;4.93;0.60;;;;;;;7.07;98.63;103063.69;702490;28;949;-57
2021/11/23 01:19:19;;;;;;;4.10;0.60;;;;;;;7.09;98.49;103063.72;702339;28;855;-58
2021/11/23 01:19:40;;;;;;;5.60;0.80;;;;;;;7.09;98.38;103064.59;702362;28;966;-57
2021/11/23 01:20:00;;;;;;;5.23;0.73;;;;;;;7.09;98.46;103058.47;702303;28;815;-58
2021/11/23 01:20:21;;;;;;;4.97;0.70;;;;;;;7.10;98.68;103057.59;702216;28;867;-58
2021/11/23 01:20:41;;;;;;;4.35;0.80;;;;;;;7.10;98.44;103061.09;701958;28;1589;-58
2021/11/23 01:21:03;;;;;;;6.17;0.97;;;;;;;7.12;98.48;103063.72;702021;28;947;-58
2021/11/23 01:21:23;;;;;;;5.55;0.70;;;;;;;7.09;98.58;103053.22;702046;28;915;-58
2021/11/23 01:21:44;;;;;;;6.50;0.70;;;;;;;7.12;98.28;103054.13;701885;28;1502;-58
2021/11/23 01:22:05;;;;;;;6.28;0.88;;;;;;;7.12;98.27;103064.63;701379;28;1450;-58
2021/11/23 01:22:25;;;;;;;5.20;0.70;;;;;;;7.12;98.48;103059.38;701470;28;902;-58
2021/11/23 01:22:46;;;;;;;5.35;0.65;;;;;;;7.12;98.58;103059.38;699216;28;1013;-58
2021/11/23 01:23:07;;;;;;;6.00;0.80;;;;;;;7.13;98.32;103055.00;699403;28;927;-58
2021/11/23 01:23:29;;;;;;;5.32;0.63;;;;;;;7.13;98.25;103055.88;699321;28;909;-58
2021/11/23 01:23:49;;;;;;;4.93;0.60;;;;;;;7.13;98.29;103055.88;699275;28;804;-58
2021/11/23 01:24:11;;;;;;;4.90;0.53;;;;;;;7.14;98.45;103056.75;699408;28;788;-58
2021/11/23 01:24:31;;;;;;;4.28;1.27;;;;;;;7.16;98.41;103056.75;699151;28;1037;-58
2021/11/23 01:24:51;;;;;;;3.10;0.57;;;;;;;7.14;98.21;103059.38;699619;28;1592;-58
2021/11/23 01:25:11;;;;;;;3.85;0.75;;;;;;;7.16;98.36;103055.03;702165;28;815;-58
2021/11/23 01:25:32;;;;;;;4.60;0.80;;;;;;;7.16;98.35;103052.41;702126;28;828;-58
2021/11/23 01:25:55;;;;;;;3.90;0.60;;;;;;;7.15;98.21;103053.25;702179;28;898;-58
2021/11/23 01:26:18;;;;;;;4.68;0.80;;;;;;;7.17;98.15;103055.91;702165;28;1034;-58
2021/11/23 01:26:41;;;;;;;3.72;0.80;;;;;;;7.18;98.31;103062.91;701909;28;1316;-57
2021/11/23 01:27:01;;;;;;;5.25;0.80;;;;;;;7.17;98.41;103056.78;701966;28;1354;-58
2021/11/23 01:27:22;;;;;;;5.67;0.80;;;;;;;7.18;98.04;103052.41;701462;28;1627;-58
2021/11/23 01:27:42;;;;;;;4.63;0.70;;;;;;;7.19;98.13;103054.16;701909;28;946;-57
2021/11/23 01:28:02;;;;;;;4.03;0.70;;;;;;;7.20;98.37;103056.81;701980;28;926;-58
2021/11/23 01:28:23;;;;;;;7.43;0.85;;;;;;;7.20;98.23;103053.31;701930;28;969;-58
2021/11/23 01:28:43;;;;;;;6.93;0.80;;;;;;;7.21;98.41;103058.56;701652;28;1419;-61
2021/11/23 01:29:04;;;;;;;3.85;0.68;;;;;;;7.21;98.42;103058.56;699068;28;1322;-58
2021/11/23 01:29:25;;;;;;;4.85;0.77;;;;;;;7.22;98.07;103054.19;699341;28;879;-58
2021/11/23 01:29:45;;;;;;;6.47;0.90;;;;;;;7.22;98.28;103057.69;699353;28;990;-58
2021/11/23 01:30:08;;;;;;;5.53;0.63;;;;;;;7.22;98.36;103059.44;699257;28;935;-58
2021/11/23 01:30:29;;;;;;;4.03;0.60;;;;;;;7.23;98.39;103055.97;699283;28;849;-58
2021/11/23 01:30:53;;;;;;;5.47;0.70;;;;;;;7.22;98.14;103056.81;699210;28;927;-58
2021/11/23 01:31:16;;;;;;;3.88;0.70;;;;;;;7.23;98.10;103054.22;699204;28;1098;-58
2021/11/23 01:31:36;;;;;;;6.50;0.70;;;;;;;7.23;98.24;103055.97;699406;28;950;-57
2021/11/23 01:31:57;;;;;;;5.87;0.90;;;;;;;7.24;98.48;103052.47;701320;28;1521;-58
2021/11/23 01:32:17;;;;;;;6.43;0.80;;;;;;;7.22;98.55;103060.28;702148;28;931;-57
2021/11/23 01:32:38;;;;;;;6.55;0.63;;;;;;;7.20;98.12;103061.19;702086;28;835;-58
2021/11/23 01:32:58;;;;;;;7.22;0.77;;;;;;;7.24;98.44;103062.94;701965;28;805;-58
2021/11/23 01:33:19;;;;;;;4.03;0.73;;;;;;;7.25;98.11;103067.31;702158;28;796;-58
2021/11/23 01:33:39;;;;;;;4.43;0.60;;;;;;;7.25;98.47;103059.44;702176;28;997;-58
2021/11/23 01:33:59;;;;;;;5.20;0.80;;;;;;;7.25;98.10;103059.44;702038;28;823;-58
2021/11/23 01:34:20;;;;;;;4.30;0.63;;;;;;;7.25;98.46;103057.69;702162;28;897;-58
2021/11/23 01:34:40;;;;;;;3.90;0.63;;;;;;;7.26;98.51;103061.19;702026;28;950;-58
2021/11/23 01:35:00;;;;;;;3.97;0.80;;;;;;;7.28;98.49;103062.09;701850;28;1584;-57
2021/11/23 01:35:21;;;;;;;4.50;0.70;;;;;;;7.29;98.84;103062.09;702135;28;863;-58
2021/11/23 01:35:42;;;;;;;4.93;0.70;;;;;;;7.31;98.87;103054.25;701919;28;1963;-58
2021/11/23 01:36:03;;;;;;;5.43;0.63;;;;;;;7.33;98.97;103063.03;702070;28;820;-58
2021/11/23 01:36:23;;;;;;;5.07;0.60;;;;;;;7.32;98.84;103059.50;702066;28;1364;-58
2021/11/23 01:36:43;;;;;;;5.75;0.80;;;;;;;7.34;98.98;103064.78;701885;28;890;-58
2021/11/23 01:37:04;;;;;;;5.03;0.73;;;;;;;7.34;99.09;103057.78;701950;28;1296;-57
2021/11/23 01:37:24;;;;;;;5.07;0.90;;;;;;;7.35;98.81;103062.16;702086;28;1041;-59
2021/11/23 01:37:45;;;;;;;4.50;0.68;;;;;;;7.35;99.07;103058.66;701700;28;970;-58
2021/11/23 01:38:05;;;;;;;4.15;0.80;;;;;;;7.35;98.78;103050.78;701985;28;882;-57
2021/11/23 01:38:26;;;;;;;5.10;0.70;;;;;;;7.37;98.94;103054.31;702068;28;820;-57
2021/11/23 01:38:46;;;;;;;5.53;0.77;;;;;;;7.37;98.98;103055.19;701971;28;922;-57
2021/11/23 01:39:06;;;;;;;5.57;0.80;;;;;;;7.36;99.07;103058.69;702017;28;835;-59
2021/11/23 01:39:27;;;;;;;5.87;0.80;;;;;;;7.36;98.96;103052.53;701961;28;868;-57
2021/11/23 01:39:50;;;;;;;5.60;0.80;;;;;;;7.37;98.85;103054.31;702219;28;811;-57
2021/11/23 01:40:12;;;;;;;3.75;0.50;;;;;;;7.36;98.82;103052.53;702004;28;1006;-58
2021/11/23 01:40:33;;;;;;;3.63;0.50;;;;;;;7.37;99.21;103049.06;702067;28;871;-58
2021/11/23 01:40:53;;;;;;;3.63;0.70;;;;;;;7.37;99.03;103052.56;701726;28;1025;-58
2021/11/23 01:41:13;;;;;;;5.23;0.73;;;;;;;7.38;99.16;103048.19;701981;28;848;-57
2021/11/23 01:41:46;;;;;;;5.45;0.70;;;;;;;7.40;99.06;103053.44;702123;28;946;-58
2021/11/23 01:42:06;;;;;;;5.43;0.63;;;;;;;7.38;98.91;103051.69;701969;28;910;-57
2021/11/23 01:42:27;;;;;;;3.90;0.47;;;;;;;7.40;98.75;103050.81;701564;28;1423;-58
2021/11/23 01:42:49;;;;;;;5.82;0.60;;;;;;;7.40;99.06;103049.09;701982;28;805;-58